Time;durP1;ratioP1;P1;durP2;ratioP2;P2;SDS_P1;SDS_P2;PMS_P1;PMS_P2;Temp;Humidity;BMP_temperature;BMP_pressure;BME280_temperature;BME280_humidity;BME280_pressure;Samples;Min_cycle;Max_cycle;Signal;HPM_P1;HPM_P2
2022/11/06 00:01:30;;;;;;;;;;;;;;;4.56;100.00;100369.95;1770525;80;20297;-78
2022/11/06 00:03:57;;;;;;;;;;;;;;;4.55;100.00;100373.42;1773237;80;20166;-82
2022/11/06 00:09:10;;;;;;;;;;;;;;;4.56;100.00;100372.56;1768561;80;20200;-82
2022/11/06 00:11:38;;;;;;;;;;;;;;;4.57;100.00;100380.39;1768008;80;21159;-82
2022/11/06 00:14:05;;;;;;;;;;;;;;;4.58;100.00;100382.55;1768739;80;20383;-81
2022/11/06 00:16:33;;;;;;;;;;;;;;;4.60;100.00;100376.91;1768109;80;20251;-82
2022/11/06 00:19:00;;;;;;;;;;;;;;;4.62;100.00;100377.78;1767280;80;20220;-81
2022/11/06 00:21:28;;;;;;;;;;;;;;;4.64;100.00;100378.68;1767022;80;20283;-82
2022/11/06 00:23:57;;;;;;;;;;;;;;;4.64;100.00;100371.72;1768475;80;21139;-81
2022/11/06 00:26:26;;;;;;;;;;;;;;;4.64;100.00;100372.16;1768989;80;20243;-81
2022/11/06 00:28:52;;;;;;;;;;;;;;;4.65;100.00;100369.97;1767992;80;20180;-80
2022/11/06 00:31:22;;;;;;;;;;;;;;;4.68;100.00;100363.91;1768711;80;20250;-80
2022/11/06 00:33:48;;;;;;;;;;;;;;;4.67;100.00;100368.23;1767832;80;20211;-82
2022/11/06 00:36:17;;;;;;;;;;;;;;;4.68;100.00;100365.22;1766378;80;21163;-81
2022/11/06 00:38:43;;;;;;;;;;;;;;;4.68;100.00;100364.77;1766294;80;20136;-81
2022/11/06 00:41:11;;;;;;;;;;;;;;;4.70;100.00;100360.42;1767253;80;20207;-82
2022/11/06 00:43:38;;;;;;;;;;;;;;;4.70;100.00;100357.83;1768982;80;20196;-82
2022/11/06 00:46:06;;;;;;;;;;;;;;;4.70;100.00;100354.36;1769263;80;20230;-80
2022/11/06 00:48:33;;;;;;;;;;;;;;;4.70;100.00;100356.52;1767112;80;22278;-81
2022/11/06 00:51:03;;;;;;;;;;;;;;;4.70;100.00;100347.39;1768108;80;20207;-81
2022/11/06 00:53:29;;;;;;;;;;;;;;;4.70;100.00;100350.00;1765487;80;20707;-81
2022/11/06 00:56:11;;;;;;;;;;;;;;;4.69;100.00;100356.10;1767721;80;20215;-79
2022/11/06 00:58:38;;;;;;;;;;;;;;;4.71;100.00;100356.08;1692527;83;20396;-77
2022/11/06 01:01:08;;;;;;;;;;;;;;;4.72;100.00;100352.61;1704671;84;21115;-81
2022/11/06 01:03:34;;;;;;;;;;;;;;;4.72;100.00;100350.87;1704975;84;20201;-83
2022/11/06 01:06:09;;;;;;;;;;;;;;;4.71;100.00;100346.55;1703610;84;20579;-82
2022/11/06 01:08:36;;;;;;;;;;;;;;;4.72;100.00;100350.87;1703738;84;20219;-80
2022/11/06 01:11:11;;;;;;;;;;;;;;;4.73;100.00;100357.84;1703265;83;20557;-83
2022/11/06 01:13:37;;;;;;;;;;;;;;;4.72;100.00;100361.30;1690384;83;21129;-79
2022/11/06 01:16:05;;;;;;;;;;;;;;;4.72;100.00;100357.83;1690836;84;20265;-81
2022/11/06 01:18:32;;;;;;;;;;;;;;;4.72;100.00;100362.60;1689209;83;20283;-81
2022/11/06 01:21:04;;;;;;;;;;;;;;;4.75;100.00;100365.66;1691836;84;20358;-82
2022/11/06 01:23:31;;;;;;;;;;;;;;;4.78;100.00;100358.72;1690101;83;20193;-80
2022/11/06 01:25:59;;;;;;;;;;;;;;;4.78;100.00;100360.02;1688763;84;21192;-82
2022/11/06 01:28:26;;;;;;;;;;;;;;;4.78;100.00;100360.02;1690718;84;20197;-82
2022/11/06 01:30:54;;;;;;;;;;;;;;;4.79;100.00;100351.75;1691630;84;20221;-83
2022/11/06 01:33:21;;;;;;;;;;;;;;;4.80;100.00;100358.72;1689443;84;20363;-83
2022/11/06 01:35:48;;;;;;;;;;;;;;;4.80;100.00;100354.81;1690070;84;20213;-80
2022/11/06 01:38:14;;;;;;;;;;;;;;;4.80;100.00;100356.98;1690281;84;21081;-79
2022/11/06 01:40:43;;;;;;;;;;;;;;;4.83;100.00;100356.98;1690098;84;20240;-79
2022/11/06 01:43:23;;;;;;;;;;;;;;;4.84;100.00;100349.61;1691145;83;20226;-80
2022/11/06 01:45:51;;;;;;;;;;;;;;;4.83;100.00;100351.78;1689967;83;20249;-79
2022/11/06 01:48:19;;;;;;;;;;;;;;;4.84;100.00;100349.61;1689063;83;20490;-81
2022/11/06 01:50:48;;;;;;;;;;;;;;;4.87;100.00;100347.43;1689277;84;21865;-80
2022/11/06 01:53:14;;;;;;;;;;;;;;;4.90;100.00;100346.58;1690431;84;20212;-80
2022/11/06 01:55:43;;;;;;;;;;;;;;;4.91;100.00;100348.30;1689503;84;20205;-78
2022/11/06 01:58:11;;;;;;;;;;;;;;;4.90;100.00;100353.10;1676977;83;20186;-80
2022/11/06 02:00:39;;;;;;;;;;;;;;;4.91;100.00;100360.03;1682533;83;20204;-78
2022/11/06 02:03:05;;;;;;;;;;;;;;;4.91;100.00;100353.52;1681001;83;21068;-78
2022/11/06 02:05:31;;;;;;;;;;;;;;;4.90;100.00;100357.02;1682246;83;20254;-78
2022/11/06 02:07:59;;;;;;;;;;;;;;;4.88;100.00;100363.53;1681480;83;20198;-80
2022/11/06 02:10:26;;;;;;;;;;;;;;;4.88;100.00;100357.45;1681855;83;20568;-81
2022/11/06 02:12:56;;;;;;;;;;;;;;;4.87;100.00;100357.86;1682742;83;20203;-82
2022/11/06 02:15:26;;;;;;;;;;;;;;;4.86;100.00;100357.45;1682500;84;21178;-80
2022/11/06 02:17:58;;;;;;;;;;;;;;;4.84;100.00;100350.03;1658278;84;20558;-81
2022/11/06 02:20:40;;;;;;;;;;;;;;;4.83;100.00;100350.91;1682494;84;20489;-79
2022/11/06 02:23:26;;;;;;;;;;;;;;;4.82;100.00;100352.66;1682235;84;20461;-81
2022/11/06 02:26:19;;;;;;;;;;;;;;;4.83;100.00;100356.13;1681036;84;20147;-81
2022/11/06 02:28:51;;;;;;;;;;;;;;;4.82;100.00;100350.05;1681511;84;21108;-82
2022/11/06 02:31:21;;;;;;;;;;;;;;;4.83;100.00;100346.56;1683306;83;20198;-80
2022/11/06 02:33:51;;;;;;;;;;;;;;;4.84;100.00;100352.63;1682555;84;20243;-80
2022/11/06 02:36:24;;;;;;;;;;;;;;;4.83;100.00;100350.47;1684060;84;20214;-79
2022/11/06 02:38:54;;;;;;;;;;;;;;;4.81;100.00;100353.52;1683148;84;20214;-80
2022/11/06 02:41:22;;;;;;;;;;;;;;;4.81;100.00;100350.91;1682754;83;21164;-80
2022/11/06 02:43:51;;;;;;;;;;;;;;;4.81;100.00;100350.91;1683130;84;20566;-80
2022/11/06 02:46:20;;;;;;;;;;;;;;;4.81;100.00;100348.30;1683792;84;20246;-79
2022/11/06 02:48:51;;;;;;;;;;;;;;;4.81;100.00;100349.60;1681056;84;20980;-80
2022/11/06 02:51:20;;;;;;;;;;;;;;;4.81;100.00;100350.91;1683305;84;20328;-78
2022/11/06 02:53:47;;;;;;;;;;;;;;;4.81;100.00;100353.52;1683823;84;21976;-80
2022/11/06 02:56:19;;;;;;;;;;;;;;;4.83;100.00;100353.08;1682836;84;20207;-78
2022/11/06 02:59:07;;;;;;;;;;;;;;;4.82;100.00;100352.66;1683014;83;20446;-80
2022/11/06 03:01:50;;;;;;;;;;;;;;;4.83;100.00;100349.61;1682208;84;20234;-81
2022/11/06 03:04:21;;;;;;;;;;;;;;;4.84;100.00;100354.83;1682714;84;20237;-80
2022/11/06 03:06:53;;;;;;;;;;;;;;;4.84;100.00;100357.84;1681105;84;21105;-81
2022/11/06 03:09:24;;;;;;;;;;;;;;;4.85;100.00;100354.39;1682572;84;20234;-79
2022/11/06 03:11:55;;;;;;;;;;;;;;;4.86;100.00;100356.14;1685245;83;20247;-79
2022/11/06 03:14:25;;;;;;;;;;;;;;;4.86;100.00;100352.64;1697482;83;20173;-79
2022/11/06 03:17:03;;;;;;;;;;;;;;;4.84;100.00;100348.72;1698696;84;20103;-82
2022/11/06 03:19:54;;;;;;;;;;;;;;;4.83;100.00;100356.98;1695340;83;21102;-83
2022/11/06 03:22:41;;;;;;;;;;;;;;;4.86;100.00;100355.25;1695898;83;20221;-83
2022/11/06 03:25:15;;;;;;;;;;;;;;;4.87;100.00;100346.57;1652589;83;21054;-81
2022/11/06 03:28:09;;;;;;;;;;;;;;;4.86;100.00;100346.13;1686075;83;20184;-80
2022/11/06 03:30:40;;;;;;;;;;;;;;;4.87;100.00;100352.65;1697144;83;20169;-81
2022/11/06 03:33:22;;;;;;;;;;;;;;;4.87;100.00;100345.27;1702373;84;21193;-81
2022/11/06 03:35:56;;;;;;;;;;;;;;;4.84;100.00;100343.09;1701832;84;20244;-84
2022/11/06 03:38:26;;;;;;;;;;;;;;;4.86;100.00;100340.91;1702661;84;20165;-82
2022/11/06 03:40:56;;;;;;;;;;;;;;;4.87;100.00;100337.45;1702091;84;20402;-82
2022/11/06 03:43:24;;;;;;;;;;;;;;;4.86;100.00;100337.89;1697731;83;20244;-80
2022/11/06 03:45:50;;;;;;;;;;;;;;;4.86;100.00;100337.89;1697136;83;21129;-82
2022/11/06 03:48:26;;;;;;;;;;;;;;;4.83;100.00;100333.97;1694010;83;20586;-83
2022/11/06 03:51:02;;;;;;;;;;;;;;;4.82;100.00;100331.80;1694535;84;20552;-82
2022/11/06 03:53:33;;;;;;;;;;;;;;;4.83;100.00;100333.52;1693153;84;20492;-83
2022/11/06 03:56:19;;;;;;;;;;;;;;;4.83;100.00;100320.48;1701448;83;20169;-80
2022/11/06 03:58:46;;;;;;;;;;;;;;;4.82;100.00;100318.77;1681910;83;21168;-80
2022/11/06 04:01:12;;;;;;;;;;;;;;;4.83;100.00;100324.40;1691476;84;20185;-82
2022/11/06 04:03:54;;;;;;;;;;;;;;;4.81;100.00;100311.80;1694841;83;20196;-80
2022/11/06 04:06:24;;;;;;;;;;;;;;;4.81;100.00;100314.41;1687596;84;20197;-82
2022/11/06 04:14:25;;;;;;;;;;;;;;;4.81;100.00;100337.02;1699943;83;20198;-81
2022/11/06 04:16:53;;;;;;;;;;;;;;;4.83;100.00;100330.05;1689846;83;20454;-83
2022/11/06 04:19:21;;;;;;;;;;;;;;;4.82;100.00;100331.80;1686325;84;20228;-81
2022/11/06 04:22:08;;;;;;;;;;;;;;;4.83;100.00;100334.83;1689358;84;20562;-79
2022/11/06 04:27:46;;;;;;;;;;;;;;;4.83;100.00;100333.52;1695367;83;20197;-83
2022/11/06 04:30:13;;;;;;;;;;;;;;;4.82;100.00;100336.13;1664793;83;20194;-82
2022/11/06 04:33:00;;;;;;;;;;;;;;;4.83;100.00;100333.52;1690363;84;20237;-84
2022/11/06 04:35:38;;;;;;;;;;;;;;;4.83;100.00;100328.31;1689518;84;20188;-82
2022/11/06 04:38:25;;;;;;;;;;;;;;;4.83;100.00;100335.27;1689963;84;21055;-83
2022/11/06 04:41:01;;;;;;;;;;;;;;;4.81;100.00;100330.05;1686660;83;20171;-82
2022/11/06 04:43:30;;;;;;;;;;;;;;;4.83;100.00;100328.31;1690572;84;20234;-79
2022/11/06 04:45:57;;;;;;;;;;;;;;;4.84;100.00;100326.15;1691395;84;20630;-85
2022/11/06 04:48:24;;;;;;;;;;;;;;;4.82;100.00;100330.50;1691730;84;20252;-82
2022/11/06 04:50:53;;;;;;;;;;;;;;;4.80;100.00;100330.91;1696804;83;21097;-82
2022/11/06 04:53:21;;;;;;;;;;;;;;;4.81;100.00;100332.66;1699621;84;20236;-82
2022/11/06 04:55:51;;;;;;;;;;;;;;;4.82;100.00;100338.73;1691946;83;20226;-84
2022/11/06 04:58:18;;;;;;;;;;;;;;;4.80;100.00;100341.34;1692203;83;20287;-82
2022/11/06 05:00:46;;;;;;;;;;;;;;;4.79;100.00;100345.23;1692369;83;20216;-82
2022/11/06 05:03:13;;;;;;;;;;;;;;;4.80;100.00;100349.16;1689648;84;21129;-83
2022/11/06 05:05:39;;;;;;;;;;;;;;;4.81;100.00;100344.83;1694711;84;20225;-80
2022/11/06 05:08:06;;;;;;;;;;;;;;;4.79;100.00;100348.73;1690352;84;20196;-82
2022/11/06 05:10:32;;;;;;;;;;;;;;;4.79;100.00;100355.25;1691311;84;20166;-81
2022/11/06 05:12:58;;;;;;;;;;;;;;;4.80;100.00;100353.51;1690996;83;20559;-83
2022/11/06 05:15:25;;;;;;;;;;;;;;;4.81;100.00;100361.34;1693552;83;21145;-82
2022/11/06 05:17:51;;;;;;;;;;;;;;;4.82;100.00;100359.18;1699326;84;20232;-81
2022/11/06 05:20:18;;;;;;;;;;;;;;;4.83;100.00;100370.03;1693278;84;20716;-83
2022/11/06 05:22:59;;;;;;;;;;;;;;;4.86;100.00;100365.67;1693480;83;20293;-82
2022/11/06 05:25:32;;;;;;;;;;;;;;;4.87;100.00;100370.90;1693355;83;20233;-81
2022/11/06 05:27:59;;;;;;;;;;;;;;;4.87;100.00;100372.20;1694226;83;21267;-83
2022/11/06 05:30:25;;;;;;;;;;;;;;;4.86;100.00;100365.27;1695464;84;20212;-82
2022/11/06 05:32:51;;;;;;;;;;;;;;;4.87;100.00;100364.83;1690970;84;20465;-83
2022/11/06 05:35:18;;;;;;;;;;;;;;;4.88;100.00;100366.58;1693065;83;20202;-82
2022/11/06 05:37:45;;;;;;;;;;;;;;;4.88;100.00;100369.19;1692562;83;20246;-81
2022/11/06 05:40:11;;;;;;;;;;;;;;;4.90;100.00;100367.44;1691607;83;21184;-82
2022/11/06 05:42:40;;;;;;;;;;;;;;;4.92;100.00;100368.31;1690958;83;20608;-83
2022/11/06 05:45:06;;;;;;;;;;;;;;;4.94;100.00;100374.39;1695082;84;20232;-83
2022/11/06 05:47:33;;;;;;;;;;;;;;;4.98;100.00;100376.16;1683491;84;20211;-82
2022/11/06 05:50:00;;;;;;;;;;;;;;;4.99;100.00;100380.48;1693041;84;20138;-82
2022/11/06 05:52:27;;;;;;;;;;;;;;;4.99;100.00;100381.38;1689899;83;21148;-80
2022/11/06 05:54:54;;;;;;;;;;;;;;;5.00;100.00;100382.24;1688762;84;20249;-79
2022/11/06 05:57:21;;;;;;;;;;;;;;;4.99;100.00;100388.31;1720248;82;20254;-82
2022/11/06 05:59:47;;;;;;;;;;;;;;;4.96;100.00;100386.59;1694702;83;20193;-81
2022/11/06 06:02:14;;;;;;;;;;;;;;;4.96;100.00;100389.61;1693100;83;20388;-81
2022/11/06 06:04:41;;;;;;;;;;;;;;;4.96;100.00;100388.30;1692121;83;21173;-81
2022/11/06 06:07:08;;;;;;;;;;;;;;;4.97;100.00;100393.52;1685259;84;20148;-82
2022/11/06 06:09:35;;;;;;;;;;;;;;;4.98;100.00;100394.41;1705236;83;20168;-80
2022/11/06 06:12:01;;;;;;;;;;;;;;;4.99;100.00;100390.92;1696115;83;20576;-81
2022/11/06 06:14:29;;;;;;;;;;;;;;;5.00;100.00;100388.31;1694257;83;20563;-79
2022/11/06 06:16:56;;;;;;;;;;;;;;;5.01;100.00;100385.30;1705342;83;21104;-81
2022/11/06 06:19:22;;;;;;;;;;;;;;;5.01;100.00;100390.52;1704955;83;20244;-84
2022/11/06 06:21:49;;;;;;;;;;;;;;;5.00;100.00;100390.06;1706590;83;20232;-84
2022/11/06 06:24:15;;;;;;;;;;;;;;;5.01;100.00;100393.13;1706419;83;20678;-81
2022/11/06 06:26:42;;;;;;;;;;;;;;;5.02;100.00;100392.23;1703358;83;21088;-81
2022/11/06 06:29:08;;;;;;;;;;;;;;;5.02;100.00;100397.01;1695668;83;21121;-81
2022/11/06 06:31:35;;;;;;;;;;;;;;;5.04;100.00;100395.71;1698827;83;20331;-82
2022/11/06 06:34:01;;;;;;;;;;;;;;;5.07;100.00;100400.94;1699357;83;20227;-81
2022/11/06 06:36:27;;;;;;;;;;;;;;;5.10;100.00;100405.30;1700802;83;20504;-81
2022/11/06 06:38:54;;;;;;;;;;;;;;;5.10;100.00;100405.30;1697266;83;20243;-82
2022/11/06 06:41:20;;;;;;;;;;;;;;;5.11;100.00;100405.72;1707021;83;21158;-78
2022/11/06 06:43:48;;;;;;;;;;;;;;;5.12;100.00;100407.03;1706683;83;20642;-85
2022/11/06 06:46:14;;;;;;;;;;;;;;;5.11;100.00;100406.62;1700673;83;20438;-82
2022/11/06 06:48:40;;;;;;;;;;;;;;;5.13;100.00;100414.45;1699380;83;20232;-78
2022/11/06 06:51:08;;;;;;;;;;;;;;;5.14;100.00;100414.42;1695436;83;20248;-80
2022/11/06 06:53:34;;;;;;;;;;;;;;;5.16;100.00;100417.03;1700601;83;21128;-81
2022/11/06 06:56:01;;;;;;;;;;;;;;;5.16;100.00;100415.32;1707930;83;20543;-79
2022/11/06 06:58:28;;;;;;;;;;;;;;;5.17;100.00;100411.83;1695820;83;20238;-78
2022/11/06 07:00:59;;;;;;;;;;;;;;;5.18;100.00;100413.58;1697698;83;20215;-83
2022/11/06 07:03:26;;;;;;;;;;;;;;;5.19;100.00;100419.66;1704942;83;20234;-80
2022/11/06 07:05:53;;;;;;;;;;;;;;;5.18;100.00;100416.19;1695237;83;21132;-89
2022/11/06 07:08:19;;;;;;;;;;;;;;;5.18;100.00;100421.41;1692012;83;20260;-78
2022/11/06 07:10:46;;;;;;;;;;;;;;;5.16;100.00;100423.14;1699728;83;20199;-78
2022/11/06 07:13:13;;;;;;;;;;;;;;;5.15;100.00;100421.39;1702217;83;20151;-79
2022/11/06 07:15:41;;;;;;;;;;;;;;;5.15;100.00;100417.48;1693293;83;20198;-77
2022/11/06 07:18:07;;;;;;;;;;;;;;;5.16;100.00;100425.75;1709876;83;21781;-75
2022/11/06 07:20:33;;;;;;;;;;;;;;;5.16;100.00;100419.23;1707871;83;20244;-76
2022/11/06 07:23:05;;;;;;;;;;;;;;;5.17;100.00;100410.96;1701729;83;20207;-76
2022/11/06 07:25:31;;;;;;;;;;;;;;;5.19;100.00;100416.64;1696946;83;20228;-77
2022/11/06 07:28:01;;;;;;;;;;;;;;;5.20;100.00;100413.58;1702701;83;20177;-76
2022/11/06 07:30:28;;;;;;;;;;;;;;;5.19;100.00;100428.38;1701876;83;21363;-76
2022/11/06 07:32:55;;;;;;;;;;;;;;;5.17;100.00;100418.34;1695556;83;20164;-75
2022/11/06 07:35:21;;;;;;;;;;;;;;;5.18;100.00;100428.38;1699337;83;20235;-80
2022/11/06 07:37:49;;;;;;;;;;;;;;;5.20;100.00;100429.23;1706902;83;20216;-86
2022/11/06 07:40:15;;;;;;;;;;;;;;;5.21;100.00;100426.63;1704639;83;20271;-77
2022/11/06 07:42:43;;;;;;;;;;;;;;;5.23;100.00;100426.64;1699327;83;22899;-78
2022/11/06 07:45:11;;;;;;;;;;;;;;;5.26;100.00;100425.76;1696076;83;20254;-79
2022/11/06 07:47:37;;;;;;;;;;;;;;;5.32;100.00;100433.61;1712884;83;20129;-79
2022/11/06 07:50:23;;;;;;;;;;;;;;;5.34;100.00;100436.64;1715532;83;20261;-80
2022/11/06 07:52:49;;;;;;;;;;;;;;;5.36;100.00;100443.17;1698828;83;20204;-77
2022/11/06 07:55:16;;;;;;;;;;;;;;;5.36;100.00;100445.77;1696884;83;21118;-85
2022/11/06 07:57:42;;;;;;;;;;;;;;;5.37;100.00;100442.31;1706563;83;20278;-85
2022/11/06 08:00:09;;;;;;;;;;;;;;;5.38;100.00;100446.67;1708045;83;20220;-83
2022/11/06 08:02:44;;;;;;;;;;;;;;;5.37;100.00;100444.48;1705320;83;20204;-85
2022/11/06 08:05:10;;;;;;;;;;;;;;;5.40;100.00;100444.48;1701037;83;20514;-82
2022/11/06 08:07:37;;;;;;;;;;;;;;;5.43;100.00;100442.33;1700160;83;22356;-82
2022/11/06 08:10:04;;;;;;;;;;;;;;;5.46;100.00;100444.06;1704696;83;20223;-81
2022/11/06 08:12:31;;;;;;;;;;;;;;;5.48;100.00;100450.14;1694898;83;20197;-84
2022/11/06 08:14:57;;;;;;;;;;;;;;;5.48;100.00;100448.42;1719133;83;20231;-82
2022/11/06 08:17:23;;;;;;;;;;;;;;;5.51;100.00;100455.38;1702777;83;20616;-88
2022/11/06 08:19:51;;;;;;;;;;;;;;;5.53;100.00;100449.71;1704054;83;21106;-82
2022/11/06 08:22:18;;;;;;;;;;;;;;;5.54;100.00;100453.63;1706614;83;20182;-83
2022/11/06 08:24:44;;;;;;;;;;;;;;;5.55;100.00;100456.69;1721041;83;20223;-86
2022/11/06 08:27:12;;;;;;;;;;;;;;;5.57;100.00;100455.39;1711830;83;20196;-84
2022/11/06 08:29:38;;;;;;;;;;;;;;;5.56;100.00;100452.33;1709630;83;20239;-81
2022/11/06 08:32:05;;;;;;;;;;;;;;;5.54;100.00;100458.84;1706389;83;21095;-81
2022/11/06 08:34:34;;;;;;;;;;;;;;;5.53;100.00;100457.13;1712470;83;20568;-81
2022/11/06 08:37:00;;;;;;;;;;;;;;;5.55;100.00;100456.69;1707825;83;20363;-86
2022/11/06 08:39:27;;;;;;;;;;;;;;;5.58;100.00;100459.72;1712107;83;20235;-80
2022/11/06 08:41:54;;;;;;;;;;;;;;;5.59;100.00;100462.34;1706136;83;20239;-79
2022/11/06 08:44:20;;;;;;;;;;;;;;;5.58;100.00;100460.62;1710870;83;21115;-79
2022/11/06 08:46:47;;;;;;;;;;;;;;;5.61;100.00;100464.09;1688130;83;20237;-78
2022/11/06 08:49:15;;;;;;;;;;;;;;;5.61;100.00;100458.88;1724177;82;20129;-78
2022/11/06 08:51:41;;;;;;;;;;;;;;;5.62;100.00;100460.63;1718230;83;20180;-78
2022/11/06 08:54:09;;;;;;;;;;;;;;;5.61;100.00;100464.09;1705684;83;20243;-80
2022/11/06 08:56:36;;;;;;;;;;;;;;;5.62;100.00;100462.79;1715970;83;21046;-81
2022/11/06 08:59:02;;;;;;;;;;;;;;;5.64;100.00;100469.32;1708235;83;20345;-80
2022/11/06 09:01:29;;;;;;;;;;;;;;;5.64;100.00;100466.70;1719677;83;20255;-82
2022/11/06 09:03:56;;;;;;;;;;;;;;;5.64;100.00;100468.02;1713641;83;20598;-81
2022/11/06 09:06:22;;;;;;;;;;;;;;;5.66;100.00;100466.27;1697849;83;20252;-83
2022/11/06 09:08:48;;;;;;;;;;;;;;;5.70;100.00;100466.69;1701156;83;21105;-84
2022/11/06 09:11:16;;;;;;;;;;;;;;;5.72;100.00;100466.28;1711560;83;20263;-85
2022/11/06 09:13:44;;;;;;;;;;;;;;;5.72;100.00;100463.23;1716188;83;20203;-85
2022/11/06 09:16:12;;;;;;;;;;;;;;;5.75;100.00;100466.29;1697505;84;21244;-85
2022/11/06 09:18:39;;;;;;;;;;;;;;;5.75;100.00;100471.52;1696402;84;20163;-83
2022/11/06 09:21:05;;;;;;;;;;;;;;;5.73;100.00;100474.53;1696600;84;21059;-81
2022/11/06 09:23:32;;;;;;;;;;;;;;;5.69;100.00;100459.75;1695841;84;20201;-86
2022/11/06 09:25:59;;;;;;;;;;;;;;;5.65;100.00;100465.82;1696237;84;20269;-83
2022/11/06 09:28:25;;;;;;;;;;;;;;;5.62;100.00;100461.48;1695921;84;20223;-85
2022/11/06 09:30:54;;;;;;;;;;;;;;;5.59;100.00;100462.34;1696532;84;20206;-86
2022/11/06 09:33:20;;;;;;;;;;;;;;;5.57;100.00;100458.86;1696135;84;21164;-86
2022/11/06 09:35:48;;;;;;;;;;;;;;;5.56;100.00;100462.36;1695741;84;20707;-83
2022/11/06 09:38:15;;;;;;;;;;;;;;;5.57;100.00;100461.47;1695513;84;20218;-84
2022/11/06 09:40:44;;;;;;;;;;;;;;;5.59;100.00;100455.81;1696484;84;20186;-86
2022/11/06 09:43:37;;;;;;;;;;;;;;;5.62;100.00;100460.63;1696421;84;20218;-86
2022/11/06 09:46:06;;;;;;;;;;;;;;;5.65;100.00;100457.98;1696413;84;21802;-84
2022/11/06 09:48:37;;;;;;;;;;;;;;;5.66;100.00;100461.05;1695546;84;20270;-84
2022/11/06 09:51:25;;;;;;;;;;;;;;;5.66;100.00;100462.35;1696121;84;20224;-84
2022/11/06 09:53:57;;;;;;;;;;;;;;;5.66;100.00;100461.05;1696190;84;20464;-84
2022/11/06 09:56:25;;;;;;;;;;;;;;;5.64;100.00;100466.70;1696190;84;20238;-83
2022/11/06 09:58:52;;;;;;;;;;;;;;;5.62;100.00;100465.40;1695090;84;21163;-87
2022/11/06 10:01:20;;;;;;;;;;;;;;;5.61;100.00;100456.26;1695269;84;20571;-84
2022/11/06 10:03:53;;;;;;;;;;;;;;;5.61;100.00;100455.81;1696311;84;20131;-84
2022/11/06 10:06:21;;;;;;;;;;;;;;;5.63;100.00;100454.52;1696256;84;20159;-85
2022/11/06 10:08:47;;;;;;;;;;;;;;;5.66;100.00;100452.77;1696244;84;20218;-83
2022/11/06 10:11:17;;;;;;;;;;;;;;;5.70;100.00;100453.64;1696297;84;21111;-85
2022/11/06 10:14:07;;;;;;;;;;;;;;;5.69;100.00;100447.55;1695832;84;20238;-83
2022/11/06 10:16:54;;;;;;;;;;;;;;;5.68;100.00;100444.53;1688904;85;20234;-85
2022/11/06 10:19:41;;;;;;;;;;;;;;;5.67;100.00;100443.22;1688485;85;20148;-82
2022/11/06 10:22:16;;;;;;;;;;;;;;;5.67;100.00;100445.83;1688778;85;20230;-84
2022/11/06 10:25:14;;;;;;;;;;;;;;;5.65;100.00;100443.63;1688967;84;21122;-83
2022/11/06 10:27:41;;;;;;;;;;;;;;;5.64;100.00;100441.91;1688770;85;20202;-85
2022/11/06 10:30:10;;;;;;;;;;;;;;;5.66;100.00;100441.47;1688812;84;20215;-84
2022/11/06 10:32:55;;;;;;;;;;;;;;;5.66;100.00;100442.33;1688691;85;20235;-85
2022/11/06 10:35:25;;;;;;;;;;;;;;;5.64;100.00;100434.07;1688396;85;20219;-84
2022/11/06 10:38:04;;;;;;;;;;;;;;;5.64;100.00;100432.77;1671357;85;21175;-82
2022/11/06 10:40:31;;;;;;;;;;;;;;;5.66;100.00;100432.33;1688541;84;20183;-83
2022/11/06 10:43:18;;;;;;;;;;;;;;;5.67;100.00;100432.77;1688840;85;20601;-82
2022/11/06 10:45:48;;;;;;;;;;;;;;;5.69;100.00;100431.03;1693791;83;20288;-82
2022/11/06 10:48:24;;;;;;;;;;;;;;;5.72;100.00;100433.64;1700444;83;20154;-82
2022/11/06 10:51:26;;;;;;;;;;;;;;;5.75;100.00;100429.73;1696501;83;21206;-87
2022/11/06 10:54:05;;;;;;;;;;;;;;;5.77;100.00;100426.68;1699646;83;20208;-83
2022/11/06 10:56:35;;;;;;;;;;;;;;;5.77;100.00;100422.31;1696325;83;20247;-83
2022/11/06 10:59:01;;;;;;;;;;;;;;;5.81;100.00;100427.54;1705466;83;20244;-85
2022/11/06 11:01:29;;;;;;;;;;;;;;;5.82;100.00;100421.02;1704252;83;20246;-83
2022/11/06 11:03:55;;;;;;;;;;;;;;;5.82;100.00;100416.23;1705812;83;20699;-86
2022/11/06 11:06:22;;;;;;;;;;;;;;;5.83;100.00;100416.20;1705683;83;20225;-82
2022/11/06 11:08:50;;;;;;;;;;;;;;;5.85;100.00;100417.09;1700402;83;20144;-80
2022/11/06 11:11:23;;;;;;;;;;;;;;;5.87;100.00;100412.73;1691444;83;20252;-79
2022/11/06 11:13:57;;;;;;;;;;;;;;;5.89;100.00;100410.13;1690688;83;20210;-78
2022/11/06 11:16:37;;;;;;;;;;;;;;;5.88;100.00;100414.45;1692806;83;21121;-78
2022/11/06 11:19:34;;;;;;;;;;;;;;;5.88;100.00;100409.23;1688121;83;20690;-82
2022/11/06 11:22:03;;;;;;;;;;;;;;;5.89;100.00;100411.44;1668346;86;20211;-78
2022/11/06 11:24:31;;;;;;;;;;;;;;;5.88;100.00;100405.31;1677096;84;20298;-88
2022/11/06 11:27:01;;;;;;;;;;;;;;;5.86;100.00;100400.54;1705918;84;20513;-78
2022/11/06 11:29:44;;;;;;;;;;;;;;;5.85;100.00;100400.13;1708710;83;21841;-79
2022/11/06 11:32:13;;;;;;;;;;;;;;;5.83;100.00;100395.31;1707473;84;20252;-80
2022/11/06 11:34:46;;;;;;;;;;;;;;;5.80;100.00;100395.34;1700197;84;20183;-81
2022/11/06 11:37:28;;;;;;;;;;;;;;;5.79;100.00;100398.81;1698220;84;20243;-80
2022/11/06 11:39:55;;;;;;;;;;;;;;;5.77;100.00;100397.95;1684842;84;20514;-76
2022/11/06 11:42:31;;;;;;;;;;;;;;;5.77;100.00;100394.03;1686956;84;21163;-78
2022/11/06 11:45:16;;;;;;;;;;;;;;;5.76;100.00;100400.11;1674731;84;20214;-76
2022/11/06 11:47:45;;;;;;;;;;;;;;;5.76;100.00;100397.50;1694201;83;20249;-81
2022/11/06 11:50:26;;;;;;;;;;;;;;;5.75;100.00;100401.00;1682106;84;20210;-85
2022/11/06 11:53:15;;;;;;;;;;;;;;;5.73;100.00;100402.72;1684727;83;20297;-89
2022/11/06 11:55:44;;;;;;;;;;;;;;;5.69;100.00;100397.08;1701778;83;21128;-82
2022/11/06 11:58:21;;;;;;;;;;;;;;;5.66;100.00;100398.38;1701070;82;20147;-86
2022/11/06 12:01:01;;;;;;;;;;;;;;;5.65;100.00;100391.41;1717246;82;20474;-86
2022/11/06 12:03:30;;;;;;;;;;;;;;;5.63;100.00;100393.16;1700530;83;20164;-89
2022/11/06 12:06:10;;;;;;;;;;;;;;;5.61;100.00;100392.30;1707306;83;20231;-86
2022/11/06 12:08:38;;;;;;;;;;;;;;;5.56;100.00;100394.48;1708601;83;21129;-82
2022/11/06 12:11:05;;;;;;;;;;;;;;;5.56;100.00;100401.42;1706957;83;20208;-86
2022/11/06 12:13:31;;;;;;;;;;;;;;;5.54;100.00;100400.12;1708260;83;20232;-86
2022/11/06 12:16:00;;;;;;;;;;;;;;;5.55;100.00;100401.88;1723832;82;20511;-79
2022/11/06 12:18:35;;;;;;;;;;;;;;;5.55;100.00;100400.56;1731459;82;20172;-78
2022/11/06 12:21:26;;;;;;;;;;;;;;;5.55;100.00;100399.26;1718466;82;21134;-77
2022/11/06 12:24:06;;;;;;;;;;;;;;;5.57;100.00;100398.81;1718929;82;20265;-78
2022/11/06 12:26:42;;;;;;;;;;;;;;;5.59;100.00;100400.13;1736557;82;20294;-79
2022/11/06 12:29:24;;;;;;;;;;;;;;;5.58;100.00;100403.19;1727852;82;20602;-79
2022/11/06 12:32:12;;;;;;;;;;;;;;;5.61;100.00;100406.66;1725440;82;21042;-84
2022/11/06 12:34:48;;;;;;;;;;;;;;;5.58;100.00;100405.79;1729482;82;21153;-81
2022/11/06 12:37:41;;;;;;;;;;;;;;;5.58;100.00;100407.51;1725427;82;20226;-79
2022/11/06 12:40:17;;;;;;;;;;;;;;;5.58;100.00;100405.79;1733443;82;20198;-80
2022/11/06 12:43:11;;;;;;;;;;;;;;;5.59;100.00;100402.29;1729043;82;20235;-85
2022/11/06 12:45:44;;;;;;;;;;;;;;;5.59;100.00;100393.16;1717608;82;20991;-82
2022/11/06 12:48:29;;;;;;;;;;;;;;;5.58;100.00;100395.34;1730334;82;21126;-81
2022/11/06 12:51:12;;;;;;;;;;;;;;;5.58;100.00;100394.05;1731288;82;20266;-80
2022/11/06 12:54:04;;;;;;;;;;;;;;;5.57;100.00;100389.68;1728476;82;20253;-80
2022/11/06 12:56:37;;;;;;;;;;;;;;;5.53;100.00;100391.88;1725458;82;20187;-82
2022/11/06 12:59:23;;;;;;;;;;;;;;;5.53;100.00;100397.09;1728749;82;20203;-82
2022/11/06 13:02:05;;;;;;;;;;;;;;;5.57;100.00;100403.18;1730559;82;21146;-80
2022/11/06 13:04:35;;;;;;;;;;;;;;;5.56;100.00;100399.70;1725673;82;20231;-83
2022/11/06 13:07:11;;;;;;;;;;;;;;;5.53;100.00;100402.31;1724092;82;20251;-82